sensor_id;sensor_type;location;lat;lon;timestamp;temperature;humidity
49373;DHT22;44113;38.408;-122.974;2022-09-09T00:01:37;34.20;43.00
49373;DHT22;44113;38.408;-122.974;2022-09-09T00:04:21;34.20;42.90
49373;DHT22;44113;38.408;-122.974;2022-09-09T00:09:47;34.10;43.30
49373;DHT22;44113;38.408;-122.974;2022-09-09T00:15:20;34.10;43.50
49373;DHT22;44113;38.408;-122.974;2022-09-09T00:17:51;34.10;43.20
49373;DHT22;44113;38.408;-122.974;2022-09-09T00:21:02;34.10;42.70
49373;DHT22;44113;38.408;-122.974;2022-09-09T00:23:39;34.10;42.80
49373;DHT22;44113;38.408;-122.974;2022-09-09T00:31:34;34.10;42.90
49373;DHT22;44113;38.408;-122.974;2022-09-09T00:34:12;34.10;42.70
49373;DHT22;44113;38.408;-122.974;2022-09-09T00:36:41;34.10;42.50
49373;DHT22;44113;38.408;-122.974;2022-09-09T00:39:27;34.10;42.70
49373;DHT22;44113;38.408;-122.974;2022-09-09T00:44:34;34.10;43.50
49373;DHT22;44113;38.408;-122.974;2022-09-09T00:58:09;33.90;45.10
49373;DHT22;44113;38.408;-122.974;2022-09-09T01:00:42;33.90;45.00
49373;DHT22;44113;38.408;-122.974;2022-09-09T01:12:07;33.80;44.70
49373;DHT22;44113;38.408;-122.974;2022-09-09T01:14:47;33.80;44.60
49373;DHT22;44113;38.408;-122.974;2022-09-09T01:27:49;33.50;44.10
49373;DHT22;44113;38.408;-122.974;2022-09-09T01:30:18;33.50;43.80
49373;DHT22;44113;38.408;-122.974;2022-09-09T01:32:48;33.50;43.70
49373;DHT22;44113;38.408;-122.974;2022-09-09T01:37:48;33.40;43.40
49373;DHT22;44113;38.408;-122.974;2022-09-09T01:40:16;33.40;43.40
49373;DHT22;44113;38.408;-122.974;2022-09-09T01:42:42;33.40;43.10
49373;DHT22;44113;38.408;-122.974;2022-09-09T01:45:09;33.40;43.20
49373;DHT22;44113;38.408;-122.974;2022-09-09T01:47:36;33.30;43.00
49373;DHT22;44113;38.408;-122.974;2022-09-09T01:50:03;33.30;43.10
49373;DHT22;44113;38.408;-122.974;2022-09-09T01:52:39;33.10;45.00
49373;DHT22;44113;38.408;-122.974;2022-09-09T01:55:06;33.10;45.50
49373;DHT22;44113;38.408;-122.974;2022-09-09T01:57:39;33.00;45.40
49373;DHT22;44113;38.408;-122.974;2022-09-09T02:00:10;33.00;45.70
49373;DHT22;44113;38.408;-122.974;2022-09-09T02:05:41;33.00;45.50
49373;DHT22;44113;38.408;-122.974;2022-09-09T02:10:55;32.90;45.60
49373;DHT22;44113;38.408;-122.974;2022-09-09T02:13:23;33.00;45.50
49373;DHT22;44113;38.408;-122.974;2022-09-09T02:16:42;32.90;45.80
49373;DHT22;44113;38.408;-122.974;2022-09-09T02:21:38;32.90;45.50
49373;DHT22;44113;38.408;-122.974;2022-09-09T02:24:07;32.80;45.80
49373;DHT22;44113;38.408;-122.974;2022-09-09T02:26:40;32.80;45.80
49373;DHT22;44113;38.408;-122.974;2022-09-09T02:29:16;32.70;45.70
49373;DHT22;44113;38.408;-122.974;2022-09-09T02:31:45;32.70;45.70
49373;DHT22;44113;38.408;-122.974;2022-09-09T02:34:14;32.60;45.90
49373;DHT22;44113;38.408;-122.974;2022-09-09T02:36:43;32.60;45.80
49373;DHT22;44113;38.408;-122.974;2022-09-09T02:39:12;32.60;45.70
49373;DHT22;44113;38.408;-122.974;2022-09-09T02:41:41;32.60;46.00
49373;DHT22;44113;38.408;-122.974;2022-09-09T02:44:15;32.50;45.10
49373;DHT22;44113;38.408;-122.974;2022-09-09T02:52:14;32.30;45.30
49373;DHT22;44113;38.408;-122.974;2022-09-09T02:54:42;32.20;45.60
49373;DHT22;44113;38.408;-122.974;2022-09-09T02:57:25;32.20;45.70
49373;DHT22;44113;38.408;-122.974;2022-09-09T02:59:57;32.20;45.70
49373;DHT22;44113;38.408;-122.974;2022-09-09T03:02:23;32.30;44.10
49373;DHT22;44113;38.408;-122.974;2022-09-09T03:04:51;32.30;44.00
49373;DHT22;44113;38.408;-122.974;2022-09-09T03:07:21;32.30;44.10
49373;DHT22;44113;38.408;-122.974;2022-09-09T03:09:48;32.30;43.10
49373;DHT22;44113;38.408;-122.974;2022-09-09T03:12:14;32.30;44.20
49373;DHT22;44113;38.408;-122.974;2022-09-09T03:14:42;32.20;45.00
49373;DHT22;44113;38.408;-122.974;2022-09-09T03:17:11;32.20;43.60
49373;DHT22;44113;38.408;-122.974;2022-09-09T03:19:38;32.20;43.30
49373;DHT22;44113;38.408;-122.974;2022-09-09T03:22:06;32.20;43.60
49373;DHT22;44113;38.408;-122.974;2022-09-09T03:24:32;32.20;43.60
49373;DHT22;44113;38.408;-122.974;2022-09-09T03:26:59;32.30;42.40
49373;DHT22;44113;38.408;-122.974;2022-09-09T03:29:26;32.20;43.40
49373;DHT22;44113;38.408;-122.974;2022-09-09T03:31:52;32.20;44.30
49373;DHT22;44113;38.408;-122.974;2022-09-09T03:34:19;32.10;44.20
49373;DHT22;44113;38.408;-122.974;2022-09-09T03:36:45;32.10;44.40
49373;DHT22;44113;38.408;-122.974;2022-09-09T03:39:14;32.00;44.30
49373;DHT22;44113;38.408;-122.974;2022-09-09T03:41:41;32.00;44.50
49373;DHT22;44113;38.408;-122.974;2022-09-09T03:44:07;31.90;44.70
49373;DHT22;44113;38.408;-122.974;2022-09-09T03:46:34;31.90;44.60
49373;DHT22;44113;38.408;-122.974;2022-09-09T03:49:01;31.90;43.70
49373;DHT22;44113;38.408;-122.974;2022-09-09T03:51:28;31.90;42.50
49373;DHT22;44113;38.408;-122.974;2022-09-09T03:53:54;31.90;42.40
49373;DHT22;44113;38.408;-122.974;2022-09-09T03:56:24;31.90;42.80
49373;DHT22;44113;38.408;-122.974;2022-09-09T03:58:51;31.90;42.50
49373;DHT22;44113;38.408;-122.974;2022-09-09T04:01:17;31.90;42.50
49373;DHT22;44113;38.408;-122.974;2022-09-09T04:03:45;31.90;42.00
49373;DHT22;44113;38.408;-122.974;2022-09-09T04:06:12;31.90;41.90
49373;DHT22;44113;38.408;-122.974;2022-09-09T04:08:40;31.90;42.00
49373;DHT22;44113;38.408;-122.974;2022-09-09T04:11:08;31.90;41.90
49373;DHT22;44113;38.408;-122.974;2022-09-09T04:13:37;31.90;41.90
49373;DHT22;44113;38.408;-122.974;2022-09-09T04:16:05;31.90;42.90
49373;DHT22;44113;38.408;-122.974;2022-09-09T04:18:32;31.80;42.20
49373;DHT22;44113;38.408;-122.974;2022-09-09T04:21:00;31.70;43.30
49373;DHT22;44113;38.408;-122.974;2022-09-09T04:23:28;31.70;44.00
49373;DHT22;44113;38.408;-122.974;2022-09-09T04:25:56;31.60;43.60
49373;DHT22;44113;38.408;-122.974;2022-09-09T04:28:25;31.50;42.60
49373;DHT22;44113;38.408;-122.974;2022-09-09T04:30:52;31.50;42.70
49373;DHT22;44113;38.408;-122.974;2022-09-09T04:33:19;31.50;41.70
49373;DHT22;44113;38.408;-122.974;2022-09-09T04:35:48;31.60;41.60
49373;DHT22;44113;38.408;-122.974;2022-09-09T04:38:16;31.60;41.50
49373;DHT22;44113;38.408;-122.974;2022-09-09T04:40:46;31.60;41.40
49373;DHT22;44113;38.408;-122.974;2022-09-09T04:43:14;31.60;41.40
49373;DHT22;44113;38.408;-122.974;2022-09-09T04:45:41;31.60;41.40
49373;DHT22;44113;38.408;-122.974;2022-09-09T04:48:08;31.60;41.30
49373;DHT22;44113;38.408;-122.974;2022-09-09T04:50:38;31.60;41.40
49373;DHT22;44113;38.408;-122.974;2022-09-09T04:53:05;31.60;41.30
49373;DHT22;44113;38.408;-122.974;2022-09-09T04:55:32;31.60;41.20
49373;DHT22;44113;38.408;-122.974;2022-09-09T04:58:05;31.50;41.30
49373;DHT22;44113;38.408;-122.974;2022-09-09T05:00:33;31.50;41.10
49373;DHT22;44113;38.408;-122.974;2022-09-09T05:03:05;31.50;41.30
49373;DHT22;44113;38.408;-122.974;2022-09-09T05:05:33;31.50;41.60
49373;DHT22;44113;38.408;-122.974;2022-09-09T05:08:07;31.40;41.20
49373;DHT22;44113;38.408;-122.974;2022-09-09T05:10:36;31.40;41.30
49373;DHT22;44113;38.408;-122.974;2022-09-09T05:13:03;31.30;41.10
49373;DHT22;44113;38.408;-122.974;2022-09-09T05:15:30;31.30;40.90
49373;DHT22;44113;38.408;-122.974;2022-09-09T05:18:01;31.30;41.10
49373;DHT22;44113;38.408;-122.974;2022-09-09T05:20:28;31.30;41.20
49373;DHT22;44113;38.408;-122.974;2022-09-09T05:22:56;31.30;41.20
49373;DHT22;44113;38.408;-122.974;2022-09-09T05:25:23;31.30;41.20
49373;DHT22;44113;38.408;-122.974;2022-09-09T05:27:51;31.30;41.10
49373;DHT22;44113;38.408;-122.974;2022-09-09T05:30:21;31.30;41.20
49373;DHT22;44113;38.408;-122.974;2022-09-09T05:32:48;31.30;41.20
49373;DHT22;44113;38.408;-122.974;2022-09-09T05:35:16;31.20;41.20
49373;DHT22;44113;38.408;-122.974;2022-09-09T05:37:45;31.20;41.40
49373;DHT22;44113;38.408;-122.974;2022-09-09T05:40:12;31.20;41.40
49373;DHT22;44113;38.408;-122.974;2022-09-09T05:42:38;31.10;41.70
49373;DHT22;44113;38.408;-122.974;2022-09-09T05:45:06;31.10;41.40
49373;DHT22;44113;38.408;-122.974;2022-09-09T05:47:34;31.00;41.40
49373;DHT22;44113;38.408;-122.974;2022-09-09T05:50:01;31.00;41.30
49373;DHT22;44113;38.408;-122.974;2022-09-09T05:52:28;30.90;41.80
49373;DHT22;44113;38.408;-122.974;2022-09-09T05:54:54;30.90;41.70
49373;DHT22;44113;38.408;-122.974;2022-09-09T05:57:22;30.90;41.10
49373;DHT22;44113;38.408;-122.974;2022-09-09T05:59:51;30.90;41.30
49373;DHT22;44113;38.408;-122.974;2022-09-09T06:02:17;30.90;41.30
49373;DHT22;44113;38.408;-122.974;2022-09-09T06:04:43;30.90;41.20
49373;DHT22;44113;38.408;-122.974;2022-09-09T06:07:10;30.80;41.30
49373;DHT22;44113;38.408;-122.974;2022-09-09T06:09:40;30.90;41.30
49373;DHT22;44113;38.408;-122.974;2022-09-09T06:12:07;30.80;41.20
49373;DHT22;44113;38.408;-122.974;2022-09-09T06:14:34;30.80;41.40
49373;DHT22;44113;38.408;-122.974;2022-09-09T06:17:00;30.80;41.90
49373;DHT22;44113;38.408;-122.974;2022-09-09T06:19:28;30.70;41.50
49373;DHT22;44113;38.408;-122.974;2022-09-09T06:21:56;30.70;42.40
49373;DHT22;44113;38.408;-122.974;2022-09-09T06:24:23;30.70;42.30
49373;DHT22;44113;38.408;-122.974;2022-09-09T06:26:50;30.70;44.60
49373;DHT22;44113;38.408;-122.974;2022-09-09T06:29:18;30.70;44.20
49373;DHT22;44113;38.408;-122.974;2022-09-09T06:31:45;30.70;44.70
49373;DHT22;44113;38.408;-122.974;2022-09-09T06:34:13;30.70;45.40
49373;DHT22;44113;38.408;-122.974;2022-09-09T06:36:40;30.70;47.10
49373;DHT22;44113;38.408;-122.974;2022-09-09T06:39:07;30.50;47.10
49373;DHT22;44113;38.408;-122.974;2022-09-09T06:41:36;30.50;48.30
49373;DHT22;44113;38.408;-122.974;2022-09-09T06:44:04;30.40;46.90
49373;DHT22;44113;38.408;-122.974;2022-09-09T06:46:31;30.40;46.10
49373;DHT22;44113;38.408;-122.974;2022-09-09T06:48:59;30.40;46.70
49373;DHT22;44113;38.408;-122.974;2022-09-09T06:51:31;30.40;45.40
49373;DHT22;44113;38.408;-122.974;2022-09-09T06:54:00;30.40;46.20
49373;DHT22;44113;38.408;-122.974;2022-09-09T06:56:29;30.40;44.70
49373;DHT22;44113;38.408;-122.974;2022-09-09T06:58:58;30.40;45.10
49373;DHT22;44113;38.408;-122.974;2022-09-09T07:01:28;30.40;44.60
49373;DHT22;44113;38.408;-122.974;2022-09-09T07:03:57;30.40;44.70
49373;DHT22;44113;38.408;-122.974;2022-09-09T07:06:33;30.30;45.10
49373;DHT22;44113;38.408;-122.974;2022-09-09T07:09:03;30.30;43.50
49373;DHT22;44113;38.408;-122.974;2022-09-09T07:11:32;30.20;43.90
49373;DHT22;44113;38.408;-122.974;2022-09-09T07:14:00;30.30;43.80
49373;DHT22;44113;38.408;-122.974;2022-09-09T07:16:27;30.30;44.00
49373;DHT22;44113;38.408;-122.974;2022-09-09T07:18:57;30.20;43.70
49373;DHT22;44113;38.408;-122.974;2022-09-09T07:21:25;30.20;43.60
49373;DHT22;44113;38.408;-122.974;2022-09-09T07:23:53;30.20;43.40
49373;DHT22;44113;38.408;-122.974;2022-09-09T07:26:23;30.10;43.90
49373;DHT22;44113;38.408;-122.974;2022-09-09T07:28:49;30.10;43.10
49373;DHT22;44113;38.408;-122.974;2022-09-09T07:31:17;30.20;43.20
49373;DHT22;44113;38.408;-122.974;2022-09-09T07:33:45;30.20;43.00
49373;DHT22;44113;38.408;-122.974;2022-09-09T07:39:11;30.20;43.30
49373;DHT22;44113;38.408;-122.974;2022-09-09T07:41:41;30.20;43.30
49373;DHT22;44113;38.408;-122.974;2022-09-09T07:44:10;30.10;43.30
49373;DHT22;44113;38.408;-122.974;2022-09-09T07:46:38;30.10;43.10
49373;DHT22;44113;38.408;-122.974;2022-09-09T07:49:05;30.20;43.30
49373;DHT22;44113;38.408;-122.974;2022-09-09T07:51:35;30.10;43.10
49373;DHT22;44113;38.408;-122.974;2022-09-09T07:54:07;30.10;43.10
49373;DHT22;44113;38.408;-122.974;2022-09-09T07:56:35;30.10;42.90
49373;DHT22;44113;38.408;-122.974;2022-09-09T07:59:03;30.10;43.10
49373;DHT22;44113;38.408;-122.974;2022-09-09T08:01:37;30.10;42.90
49373;DHT22;44113;38.408;-122.974;2022-09-09T08:04:11;30.10;42.80
49373;DHT22;44113;38.408;-122.974;2022-09-09T08:06:46;30.10;42.80
49373;DHT22;44113;38.408;-122.974;2022-09-09T08:09:14;30.10;42.70
49373;DHT22;44113;38.408;-122.974;2022-09-09T08:11:41;30.10;42.60
49373;DHT22;44113;38.408;-122.974;2022-09-09T08:14:09;30.10;42.40
49373;DHT22;44113;38.408;-122.974;2022-09-09T08:16:42;30.10;42.60
49373;DHT22;44113;38.408;-122.974;2022-09-09T08:19:09;30.10;42.70
49373;DHT22;44113;38.408;-122.974;2022-09-09T08:21:37;30.00;43.20
49373;DHT22;44113;38.408;-122.974;2022-09-09T08:24:06;30.00;42.30
49373;DHT22;44113;38.408;-122.974;2022-09-09T08:26:36;30.10;42.70
49373;DHT22;44113;38.408;-122.974;2022-09-09T08:29:05;30.10;42.70
49373;DHT22;44113;38.408;-122.974;2022-09-09T08:31:37;30.00;42.60
49373;DHT22;44113;38.408;-122.974;2022-09-09T08:34:06;30.00;42.60
49373;DHT22;44113;38.408;-122.974;2022-09-09T08:36:35;30.00;42.50
49373;DHT22;44113;38.408;-122.974;2022-09-09T08:39:04;29.90;42.50
49373;DHT22;44113;38.408;-122.974;2022-09-09T08:44:36;29.90;42.40
49373;DHT22;44113;38.408;-122.974;2022-09-09T08:53:01;29.80;42.10
49373;DHT22;44113;38.408;-122.974;2022-09-09T08:58:24;29.80;42.20
49373;DHT22;44113;38.408;-122.974;2022-09-09T09:14:24;29.50;43.70
49373;DHT22;44113;38.408;-122.974;2022-09-09T09:19:21;29.50;44.10
49373;DHT22;44113;38.408;-122.974;2022-09-09T09:26:54;29.50;44.00
49373;DHT22;44113;38.408;-122.974;2022-09-09T09:29:23;29.50;43.80
49373;DHT22;44113;38.408;-122.974;2022-09-09T09:31:55;29.50;43.80
49373;DHT22;44113;38.408;-122.974;2022-09-09T09:34:23;29.50;43.70
49373;DHT22;44113;38.408;-122.974;2022-09-09T09:36:56;29.50;43.80
49373;DHT22;44113;38.408;-122.974;2022-09-09T09:41:54;29.40;43.60
49373;DHT22;44113;38.408;-122.974;2022-09-09T09:44:29;29.40;43.50
49373;DHT22;44113;38.408;-122.974;2022-09-09T09:47:19;29.40;43.50
49373;DHT22;44113;38.408;-122.974;2022-09-09T09:49:56;29.40;43.50
49373;DHT22;44113;38.408;-122.974;2022-09-09T09:52:26;29.30;43.30
49373;DHT22;44113;38.408;-122.974;2022-09-09T09:54:54;29.30;43.30
49373;DHT22;44113;38.408;-122.974;2022-09-09T09:57:27;29.40;43.30
49373;DHT22;44113;38.408;-122.974;2022-09-09T10:00:16;29.40;43.20
49373;DHT22;44113;38.408;-122.974;2022-09-09T10:02:45;29.40;43.20
49373;DHT22;44113;38.408;-122.974;2022-09-09T10:05:16;29.40;43.20
49373;DHT22;44113;38.408;-122.974;2022-09-09T10:07:45;29.30;42.90
49373;DHT22;44113;38.408;-122.974;2022-09-09T10:10:40;29.40;42.80
49373;DHT22;44113;38.408;-122.974;2022-09-09T10:19:32;29.30;42.50
49373;DHT22;44113;38.408;-122.974;2022-09-09T10:22:16;29.30;42.70
49373;DHT22;44113;38.408;-122.974;2022-09-09T10:25:12;29.30;42.50
49373;DHT22;44113;38.408;-122.974;2022-09-09T10:30:22;29.20;42.40
49373;DHT22;44113;38.408;-122.974;2022-09-09T10:38:14;29.20;42.40
49373;DHT22;44113;38.408;-122.974;2022-09-09T10:48:56;29.20;41.80
49373;DHT22;44113;38.408;-122.974;2022-09-09T10:51:35;29.20;41.80
49373;DHT22;44113;38.408;-122.974;2022-09-09T10:54:13;29.20;41.80
49373;DHT22;44113;38.408;-122.974;2022-09-09T10:56:44;29.20;41.80
49373;DHT22;44113;38.408;-122.974;2022-09-09T10:59:17;29.20;41.80
49373;DHT22;44113;38.408;-122.974;2022-09-09T11:10:43;29.00;42.70
49373;DHT22;44113;38.408;-122.974;2022-09-09T11:16:46;29.00;42.10
49373;DHT22;44113;38.408;-122.974;2022-09-09T11:21:52;29.00;42.00
49373;DHT22;44113;38.408;-122.974;2022-09-09T11:27:24;29.10;41.80
49373;DHT22;44113;38.408;-122.974;2022-09-09T11:38:46;29.10;41.80
49373;DHT22;44113;38.408;-122.974;2022-09-09T11:41:14;29.10;41.80
49373;DHT22;44113;38.408;-122.974;2022-09-09T11:43:43;29.00;42.00
49373;DHT22;44113;38.408;-122.974;2022-09-09T11:46:13;29.00;42.00
49373;DHT22;44113;38.408;-122.974;2022-09-09T11:48:45;29.00;42.00
49373;DHT22;44113;38.408;-122.974;2022-09-09T11:51:30;29.00;42.00
49373;DHT22;44113;38.408;-122.974;2022-09-09T11:56:45;29.00;42.00
49373;DHT22;44113;38.408;-122.974;2022-09-09T11:59:29;29.00;41.90
49373;DHT22;44113;38.408;-122.974;2022-09-09T12:04:33;28.90;41.60
49373;DHT22;44113;38.408;-122.974;2022-09-09T12:07:28;28.90;41.60
49373;DHT22;44113;38.408;-122.974;2022-09-09T12:12:35;28.90;41.60
49373;DHT22;44113;38.408;-122.974;2022-09-09T12:17:52;28.90;41.50
49373;DHT22;44113;38.408;-122.974;2022-09-09T12:20:31;28.90;41.50
49373;DHT22;44113;38.408;-122.974;2022-09-09T12:28:15;28.90;41.70
49373;DHT22;44113;38.408;-122.974;2022-09-09T12:33:37;28.80;41.90
49373;DHT22;44113;38.408;-122.974;2022-09-09T12:36:12;28.80;42.10
49373;DHT22;44113;38.408;-122.974;2022-09-09T12:38:41;28.80;41.90
49373;DHT22;44113;38.408;-122.974;2022-09-09T12:41:24;28.80;41.60
49373;DHT22;44113;38.408;-122.974;2022-09-09T12:43:51;28.80;41.40
49373;DHT22;44113;38.408;-122.974;2022-09-09T12:46:36;28.80;41.40
49373;DHT22;44113;38.408;-122.974;2022-09-09T12:49:04;28.70;41.30
49373;DHT22;44113;38.408;-122.974;2022-09-09T12:51:33;28.80;41.30
49373;DHT22;44113;38.408;-122.974;2022-09-09T12:54:00;28.70;41.20
49373;DHT22;44113;38.408;-122.974;2022-09-09T12:56:31;28.70;41.10
49373;DHT22;44113;38.408;-122.974;2022-09-09T12:58:58;28.70;41.10
49373;DHT22;44113;38.408;-122.974;2022-09-09T13:01:31;28.70;41.10
49373;DHT22;44113;38.408;-122.974;2022-09-09T13:04:00;28.70;41.10
49373;DHT22;44113;38.408;-122.974;2022-09-09T13:06:28;28.70;41.00
49373;DHT22;44113;38.408;-122.974;2022-09-09T13:08:57;28.70;41.10
49373;DHT22;44113;38.408;-122.974;2022-09-09T13:11:31;28.70;41.00
49373;DHT22;44113;38.408;-122.974;2022-09-09T13:14:01;28.70;41.20
49373;DHT22;44113;38.408;-122.974;2022-09-09T13:16:32;28.60;41.10
49373;DHT22;44113;38.408;-122.974;2022-09-09T13:19:07;28.60;40.80
49373;DHT22;44113;38.408;-122.974;2022-09-09T13:21:37;28.60;41.00
49373;DHT22;44113;38.408;-122.974;2022-09-09T13:24:25;28.60;41.00
49373;DHT22;44113;38.408;-122.974;2022-09-09T13:27:02;28.60;40.80
49373;DHT22;44113;38.408;-122.974;2022-09-09T13:29:31;28.60;41.00
49373;DHT22;44113;38.408;-122.974;2022-09-09T13:32:15;28.60;40.90
49373;DHT22;44113;38.408;-122.974;2022-09-09T13:37:34;28.50;40.70
49373;DHT22;44113;38.408;-122.974;2022-09-09T13:40:03;28.50;40.80
49373;DHT22;44113;38.408;-122.974;2022-09-09T13:42:34;28.50;40.60
49373;DHT22;44113;38.408;-122.974;2022-09-09T13:45:04;28.50;40.70
49373;DHT22;44113;38.408;-122.974;2022-09-09T13:47:36;28.50;40.70
49373;DHT22;44113;38.408;-122.974;2022-09-09T13:50:27;28.50;40.80
49373;DHT22;44113;38.408;-122.974;2022-09-09T13:52:56;28.50;40.90
49373;DHT22;44113;38.408;-122.974;2022-09-09T13:55:26;28.50;41.00
49373;DHT22;44113;38.408;-122.974;2022-09-09T13:57:57;28.50;40.70
49373;DHT22;44113;38.408;-122.974;2022-09-09T14:00:25;28.50;40.80
49373;DHT22;44113;38.408;-122.974;2022-09-09T14:02:51;28.50;40.70
49373;DHT22;44113;38.408;-122.974;2022-09-09T14:05:21;28.40;40.70
49373;DHT22;44113;38.408;-122.974;2022-09-09T14:07:49;28.40;40.60
49373;DHT22;44113;38.408;-122.974;2022-09-09T14:10:16;28.40;40.60
49373;DHT22;44113;38.408;-122.974;2022-09-09T14:12:43;28.40;40.60
49373;DHT22;44113;38.408;-122.974;2022-09-09T14:15:11;28.40;40.60
49373;DHT22;44113;38.408;-122.974;2022-09-09T14:17:38;28.40;40.50
49373;DHT22;44113;38.408;-122.974;2022-09-09T14:20:06;28.40;40.50
49373;DHT22;44113;38.408;-122.974;2022-09-09T14:22:36;28.40;40.60
49373;DHT22;44113;38.408;-122.974;2022-09-09T14:25:05;28.40;40.70
49373;DHT22;44113;38.408;-122.974;2022-09-09T14:27:32;28.40;40.60
49373;DHT22;44113;38.408;-122.974;2022-09-09T14:29:59;28.40;40.70
49373;DHT22;44113;38.408;-122.974;2022-09-09T14:32:27;28.30;40.60
49373;DHT22;44113;38.408;-122.974;2022-09-09T14:34:53;28.30;40.60
49373;DHT22;44113;38.408;-122.974;2022-09-09T14:37:20;28.30;40.70
49373;DHT22;44113;38.408;-122.974;2022-09-09T14:39:47;28.30;40.70
49373;DHT22;44113;38.408;-122.974;2022-09-09T14:42:16;28.30;40.60
49373;DHT22;44113;38.408;-122.974;2022-09-09T14:44:43;28.30;40.60
49373;DHT22;44113;38.408;-122.974;2022-09-09T14:47:09;28.30;40.40
49373;DHT22;44113;38.408;-122.974;2022-09-09T14:49:36;28.30;40.40
49373;DHT22;44113;38.408;-122.974;2022-09-09T14:52:04;28.30;40.40
49373;DHT22;44113;38.408;-122.974;2022-09-09T14:54:31;28.30;40.40
49373;DHT22;44113;38.408;-122.974;2022-09-09T14:56:59;28.30;40.50
49373;DHT22;44113;38.408;-122.974;2022-09-09T14:59:25;28.30;40.50
49373;DHT22;44113;38.408;-122.974;2022-09-09T15:01:53;28.20;40.40
49373;DHT22;44113;38.408;-122.974;2022-09-09T15:04:20;28.20;40.50
49373;DHT22;44113;38.408;-122.974;2022-09-09T15:06:46;28.20;40.40
49373;DHT22;44113;38.408;-122.974;2022-09-09T15:09:15;28.20;40.40
49373;DHT22;44113;38.408;-122.974;2022-09-09T15:11:41;28.20;40.50
49373;DHT22;44113;38.408;-122.974;2022-09-09T15:14:09;28.20;40.50
49373;DHT22;44113;38.408;-122.974;2022-09-09T15:16:38;28.20;40.50
49373;DHT22;44113;38.408;-122.974;2022-09-09T15:19:05;28.20;40.50
49373;DHT22;44113;38.408;-122.974;2022-09-09T15:21:35;28.20;40.50
49373;DHT22;44113;38.408;-122.974;2022-09-09T15:24:02;28.20;40.50
49373;DHT22;44113;38.408;-122.974;2022-09-09T15:26:28;28.10;40.40
49373;DHT22;44113;38.408;-122.974;2022-09-09T15:28:56;28.20;40.60
49373;DHT22;44113;38.408;-122.974;2022-09-09T15:31:27;28.20;40.60
49373;DHT22;44113;38.408;-122.974;2022-09-09T15:33:56;28.20;40.50
49373;DHT22;44113;38.408;-122.974;2022-09-09T15:36:31;28.20;40.40
49373;DHT22;44113;38.408;-122.974;2022-09-09T15:38:59;28.20;40.60
49373;DHT22;44113;38.408;-122.974;2022-09-09T15:41:26;28.20;40.50
49373;DHT22;44113;38.408;-122.974;2022-09-09T15:43:55;28.20;40.50
49373;DHT22;44113;38.408;-122.974;2022-09-09T15:48:55;28.10;40.70
49373;DHT22;44113;38.408;-122.974;2022-09-09T15:51:23;28.00;40.60
49373;DHT22;44113;38.408;-122.974;2022-09-09T15:53:58;28.10;40.80
49373;DHT22;44113;38.408;-122.974;2022-09-09T15:56:25;28.10;40.90
49373;DHT22;44113;38.408;-122.974;2022-09-09T15:58:54;28.10;40.80
49373;DHT22;44113;38.408;-122.974;2022-09-09T16:01:21;28.10;40.80
49373;DHT22;44113;38.408;-122.974;2022-09-09T16:03:48;28.10;40.80
49373;DHT22;44113;38.408;-122.974;2022-09-09T16:06:22;28.10;40.90
49373;DHT22;44113;38.408;-122.974;2022-09-09T16:08:50;28.10;40.80
49373;DHT22;44113;38.408;-122.974;2022-09-09T16:11:26;28.10;40.90
49373;DHT22;44113;38.408;-122.974;2022-09-09T16:13:54;28.10;40.80
49373;DHT22;44113;38.408;-122.974;2022-09-09T16:16:23;28.10;40.80
49373;DHT22;44113;38.408;-122.974;2022-09-09T16:18:53;28.10;41.10
49373;DHT22;44113;38.408;-122.974;2022-09-09T16:23:59;28.10;41.10
49373;DHT22;44113;38.408;-122.974;2022-09-09T16:26:27;28.10;41.10
49373;DHT22;44113;38.408;-122.974;2022-09-09T16:28:53;28.10;41.40
49373;DHT22;44113;38.408;-122.974;2022-09-09T16:31:23;28.10;41.60
49373;DHT22;44113;38.408;-122.974;2022-09-09T16:33:51;28.10;41.60
49373;DHT22;44113;38.408;-122.974;2022-09-09T16:36:20;28.10;41.60
49373;DHT22;44113;38.408;-122.974;2022-09-09T16:38:47;28.10;41.60
49373;DHT22;44113;38.408;-122.974;2022-09-09T16:41:14;28.10;41.60
49373;DHT22;44113;38.408;-122.974;2022-09-09T16:43:41;28.10;41.70
49373;DHT22;44113;38.408;-122.974;2022-09-09T16:46:16;28.10;41.60
49373;DHT22;44113;38.408;-122.974;2022-09-09T16:48:45;28.10;41.70
49373;DHT22;44113;38.408;-122.974;2022-09-09T16:51:29;28.10;41.80
49373;DHT22;44113;38.408;-122.974;2022-09-09T16:54:00;28.10;41.70
49373;DHT22;44113;38.408;-122.974;2022-09-09T16:56:29;28.10;41.80
49373;DHT22;44113;38.408;-122.974;2022-09-09T16:58:57;28.10;41.90
49373;DHT22;44113;38.408;-122.974;2022-09-09T17:01:26;28.10;42.00
49373;DHT22;44113;38.408;-122.974;2022-09-09T17:04:01;28.10;42.00
49373;DHT22;44113;38.408;-122.974;2022-09-09T17:06:32;28.10;42.10
49373;DHT22;44113;38.408;-122.974;2022-09-09T17:09:08;28.20;42.30
49373;DHT22;44113;38.408;-122.974;2022-09-09T17:11:38;28.20;42.30
49373;DHT22;44113;38.408;-122.974;2022-09-09T17:14:05;28.20;42.30
49373;DHT22;44113;38.408;-122.974;2022-09-09T17:16:34;28.20;42.30
49373;DHT22;44113;38.408;-122.974;2022-09-09T17:19:02;28.20;42.40
49373;DHT22;44113;38.408;-122.974;2022-09-09T17:21:30;28.20;42.40
49373;DHT22;44113;38.408;-122.974;2022-09-09T17:23:57;28.20;42.50
49373;DHT22;44113;38.408;-122.974;2022-09-09T17:26:27;28.10;42.40
49373;DHT22;44113;38.408;-122.974;2022-09-09T17:28:54;28.20;42.40
49373;DHT22;44113;38.408;-122.974;2022-09-09T17:31:22;28.20;43.40
49373;DHT22;44113;38.408;-122.974;2022-09-09T17:33:50;28.20;45.00
49373;DHT22;44113;38.408;-122.974;2022-09-09T17:38:48;28.20;44.70
49373;DHT22;44113;38.408;-122.974;2022-09-09T17:41:18;28.20;44.10
49373;DHT22;44113;38.408;-122.974;2022-09-09T17:43:45;28.20;46.50
49373;DHT22;44113;38.408;-122.974;2022-09-09T17:46:15;28.20;45.90
49373;DHT22;44113;38.408;-122.974;2022-09-09T17:48:43;28.30;49.50
49373;DHT22;44113;38.408;-122.974;2022-09-09T17:51:16;28.30;49.10
49373;DHT22;44113;38.408;-122.974;2022-09-09T17:53:47;28.30;48.50
49373;DHT22;44113;38.408;-122.974;2022-09-09T17:56:17;28.30;47.70
49373;DHT22;44113;38.408;-122.974;2022-09-09T17:58:46;28.20;47.10
49373;DHT22;44113;38.408;-122.974;2022-09-09T18:01:22;28.20;48.00
49373;DHT22;44113;38.408;-122.974;2022-09-09T18:03:50;28.20;46.90